Time;durP1;ratioP1;P1;durP2;ratioP2;P2;SDS_P1;SDS_P2;PMS_P1;PMS_P2;Temp;Humidity;BMP_temperature;BMP_pressure;BME280_temperature;BME280_humidity;BME280_pressure;Samples;Min_cycle;Max_cycle;Signal;HPM_P1;HPM_P2
2023/03/03 00:00:30;;;;;;;;;;;;;;;-142.75;100.00;79061.19;4953449;29;19922;-66
2023/03/03 00:03:00;;;;;;;;;;;;;;;-142.75;100.00;79074.97;4953565;29;20273;-68
2023/03/03 00:05:25;;;;;;;;;;;;;;;-142.75;100.00;79080.88;4941115;29;19954;-68
2023/03/03 00:07:51;;;;;;;;;;;;;;;-142.75;100.00;79086.78;4949153;28;19950;-66
2023/03/03 00:10:16;;;;;;;;;;;;;;;-142.75;100.00;79084.81;4934022;29;19914;-67
2023/03/03 00:12:46;;;;;;;;;;;;;;;-142.75;100.00;79090.72;4949170;29;19930;-66
2023/03/03 00:15:13;;;;;;;;;;;;;;;-142.75;100.00;79106.50;4934456;29;19915;-66
2023/03/03 00:17:38;;;;;;;;;;;;;;;-142.75;100.00;79092.69;4933821;29;19919;-66
2023/03/03 00:20:24;;;;;;;;;;;;;;;-142.75;100.00;79104.53;4933763;29;19921;-64
2023/03/03 00:22:49;;;;;;;;;;;;;;;-142.75;100.00;79110.44;4932812;29;20303;-66
2023/03/03 00:25:20;;;;;;;;;;;;;;;-142.75;100.00;79094.69;4948820;28;19966;-66
2023/03/03 00:27:45;;;;;;;;;;;;;;;-142.75;100.00;79104.53;4933962;29;19946;-66
2023/03/03 00:30:24;;;;;;;;;;;;;;;-142.75;100.00;79112.41;4933910;29;19966;-66
2023/03/03 00:32:51;;;;;;;;;;;;;;;-142.75;100.00;79108.47;4932820;29;20312;-67
2023/03/03 00:35:38;;;;;;;;;;;;;;;-142.75;100.00;79116.34;4933005;29;19922;-66
2023/03/03 00:38:29;;;;;;;;;;;;;;;-142.75;100.00;79118.31;4949469;28;19922;-65
2023/03/03 00:40:55;;;;;;;;;;;;;;;-142.75;100.00;79102.56;4943342;29;20335;-66
2023/03/03 00:43:24;;;;;;;;;;;;;;;-142.75;100.00;79084.81;4952883;29;19914;-66
2023/03/03 00:45:50;;;;;;;;;;;;;;;-142.75;100.00;79082.84;4934525;29;19929;-66
2023/03/03 00:48:29;;;;;;;;;;;;;;;-142.75;100.00;79090.72;4933957;29;19922;-65
2023/03/03 00:50:59;;;;;;;;;;;;;;;-142.75;100.00;79098.63;4933602;29;19980;-66
2023/03/03 00:53:25;;;;;;;;;;;;;;;-142.75;100.00;79116.34;4938116;29;19914;-65
2023/03/03 00:55:51;;;;;;;;;;;;;;;-142.75;100.00;79118.31;4952987;28;20332;-67
2023/03/03 00:58:17;;;;;;;;;;;;;;;-142.75;100.00;79086.78;4935518;29;19918;-66
2023/03/03 01:00:43;;;;;;;;;;;;;;;-142.75;100.00;79084.81;4952781;29;19980;-66
2023/03/03 01:03:11;;;;;;;;;;;;;;;-142.75;100.00;79086.78;4952921;29;19949;-65
2023/03/03 01:05:36;;;;;;;;;;;;;;;-142.75;100.00;79088.75;4952797;29;20372;-66
2023/03/03 01:08:02;;;;;;;;;;;;;;;-142.75;100.00;79086.78;4935563;29;20033;-66
2023/03/03 01:10:28;;;;;;;;;;;;;;;-142.75;100.00;79073.00;4952717;29;19918;-66
2023/03/03 01:12:53;;;;;;;;;;;;;;;-142.75;100.00;79084.81;4935404;29;19915;-66
2023/03/03 01:15:19;;;;;;;;;;;;;;;-142.75;100.00;79082.84;4930179;29;20452;-66
2023/03/03 01:17:44;;;;;;;;;;;;;;;-142.75;100.00;79082.84;4933278;29;20475;-64
2023/03/03 01:20:11;;;;;;;;;;;;;;;-142.75;100.00;79078.91;4933182;29;19914;-67
2023/03/03 01:22:36;;;;;;;;;;;;;;;-142.75;100.00;79074.97;4933609;29;20297;-66
2023/03/03 01:25:02;;;;;;;;;;;;;;;-142.75;100.00;79076.94;4933738;29;19914;-65
2023/03/03 01:27:28;;;;;;;;;;;;;;;-142.75;100.00;79074.97;4932033;29;19923;-67
2023/03/03 01:29:55;;;;;;;;;;;;;;;-142.75;100.00;79071.03;4940801;29;20368;-66
2023/03/03 01:32:20;;;;;;;;;;;;;;;-142.75;100.00;79069.06;4932988;29;20288;-65
2023/03/03 01:34:45;;;;;;;;;;;;;;;-142.75;100.00;79063.16;4933103;29;19915;-65
2023/03/03 01:37:11;;;;;;;;;;;;;;;-142.75;100.00;79067.09;4935731;29;19932;-68
2023/03/03 01:39:36;;;;;;;;;;;;;;;-142.75;100.00;79061.19;4948486;29;20005;-66
2023/03/03 01:42:01;;;;;;;;;;;;;;;-142.75;100.00;79063.16;4936835;29;19957;-66
2023/03/03 01:44:27;;;;;;;;;;;;;;;-142.75;100.00;79055.28;4936690;29;19918;-65
2023/03/03 01:46:55;;;;;;;;;;;;;;;-142.75;100.00;79061.19;4936592;29;19925;-65
2023/03/03 01:49:30;;;;;;;;;;;;;;;-142.75;100.00;79063.16;4936234;29;19922;-66
2023/03/03 01:52:00;;;;;;;;;;;;;;;-142.75;100.00;79051.34;4936637;29;19915;-67
2023/03/03 01:54:33;;;;;;;;;;;;;;;-142.75;100.00;79047.41;4936567;29;19915;-68
2023/03/03 01:57:00;;;;;;;;;;;;;;;-142.75;100.00;79061.19;4936502;29;19919;-66
2023/03/03 01:59:30;;;;;;;;;;;;;;;-142.75;100.00;79051.34;4936317;29;19938;-66
2023/03/03 02:01:55;;;;;;;;;;;;;;;-142.75;100.00;79059.22;4935246;29;19915;-66
2023/03/03 02:04:21;;;;;;;;;;;;;;;-142.75;100.00;79059.22;4935444;29;19922;-66
2023/03/03 02:06:50;;;;;;;;;;;;;;;-142.75;100.00;79053.31;4934852;29;19916;-66
2023/03/03 02:09:26;;;;;;;;;;;;;;;-142.75;100.00;79057.25;4935481;29;20001;-66
2023/03/03 02:11:53;;;;;;;;;;;;;;;-142.75;100.00;79049.38;4935357;29;19966;-66
2023/03/03 02:14:18;;;;;;;;;;;;;;;-142.75;100.00;79043.47;4936575;29;19930;-66
2023/03/03 02:16:44;;;;;;;;;;;;;;;-142.75;100.00;79055.28;4936323;29;19926;-65
2023/03/03 02:19:17;;;;;;;;;;;;;;;-142.75;100.00;79047.41;4936494;29;19922;-66
2023/03/03 02:21:42;;;;;;;;;;;;;;;-142.75;100.00;79055.28;4936296;29;20005;-66
2023/03/03 02:24:26;;;;;;;;;;;;;;;-142.75;100.00;79063.16;4954302;29;20062;-66
2023/03/03 02:26:51;;;;;;;;;;;;;;;-142.75;100.00;79063.16;4943346;29;19945;-66
2023/03/03 02:29:16;;;;;;;;;;;;;;;-142.75;100.00;79059.22;4955280;29;19965;-65
2023/03/03 02:31:42;;;;;;;;;;;;;;;-142.75;100.00;79047.41;4955266;29;19914;-67
2023/03/03 02:34:08;;;;;;;;;;;;;;;-142.75;100.00;79063.16;4948847;29;19933;-65
2023/03/03 02:36:34;;;;;;;;;;;;;;;-142.75;100.00;79067.09;4955301;28;19930;-65
2023/03/03 02:39:18;;;;;;;;;;;;;;;-142.75;100.00;79076.94;4937888;29;19922;-65
2023/03/03 02:41:46;;;;;;;;;;;;;;;-142.75;100.00;79067.09;4953674;29;19970;-66
2023/03/03 02:44:12;;;;;;;;;;;;;;;-142.75;100.00;79074.97;4949843;29;20001;-66
2023/03/03 02:46:42;;;;;;;;;;;;;;;-142.75;100.00;79071.03;4954732;28;19995;-65
2023/03/03 02:49:08;;;;;;;;;;;;;;;-142.75;100.00;79067.09;4938910;29;19919;-66
2023/03/03 02:51:34;;;;;;;;;;;;;;;-142.75;100.00;79090.72;4950461;29;20009;-66
2023/03/03 02:53:59;;;;;;;;;;;;;;;-142.75;100.00;79086.78;4952497;29;19918;-67
2023/03/03 02:56:25;;;;;;;;;;;;;;;-142.75;100.00;79086.78;4954879;28;19914;-66
2023/03/03 02:58:50;;;;;;;;;;;;;;;-142.75;100.00;79100.59;4954732;29;19915;-65
2023/03/03 03:01:15;;;;;;;;;;;;;;;-142.75;100.00;79088.75;4954783;29;19915;-65
2023/03/03 03:03:41;;;;;;;;;;;;;;;-142.75;100.00;79086.78;4937609;29;19981;-66
2023/03/03 03:06:06;;;;;;;;;;;;;;;-142.75;100.00;79086.78;4929779;29;19930;-65
2023/03/03 03:08:31;;;;;;;;;;;;;;;-142.75;100.00;79102.56;4928091;29;19918;-66
2023/03/03 03:10:57;;;;;;;;;;;;;;;-142.75;100.00;79118.31;4935253;29;19918;-65
2023/03/03 03:13:23;;;;;;;;;;;;;;;-142.75;100.00;79114.38;4935554;29;19914;-65
2023/03/03 03:15:48;;;;;;;;;;;;;;;-142.75;100.00;79106.50;4939375;28;19921;-66
2023/03/03 03:18:14;;;;;;;;;;;;;;;-142.75;100.00;79106.50;4973937;23;20560;-67
2023/03/03 03:20:40;;;;;;;;;;;;;;;-142.75;100.00;79106.50;4952236;28;20415;-66
2023/03/03 03:23:05;;;;;;;;;;;;;;;-142.75;100.00;79130.13;4954211;28;19918;-66
2023/03/03 03:25:31;;;;;;;;;;;;;;;-142.75;100.00;79120.28;4955908;28;19926;-65
2023/03/03 03:27:56;;;;;;;;;;;;;;;-142.75;100.00;79134.06;4952391;28;19921;-65
2023/03/03 03:30:21;;;;;;;;;;;;;;;-142.75;100.00;79157.72;4947879;28;19914;-65
2023/03/03 03:32:46;;;;;;;;;;;;;;;-142.75;100.00;79155.72;4953999;28;19958;-65
2023/03/03 03:35:12;;;;;;;;;;;;;;;-142.75;100.00;79175.44;4953927;28;20020;-65
2023/03/03 03:37:37;;;;;;;;;;;;;;;-142.75;100.00;79189.22;4953530;28;20058;-65
2023/03/03 03:40:03;;;;;;;;;;;;;;;-142.75;100.00;79187.25;4953723;28;19926;-65
2023/03/03 03:42:28;;;;;;;;;;;;;;;-142.75;100.00;79191.19;4953707;28;20345;-65
2023/03/03 03:44:53;;;;;;;;;;;;;;;-142.75;100.00;79173.47;4953095;28;19914;-65
2023/03/03 03:47:18;;;;;;;;;;;;;;;-142.75;100.00;79145.88;4956334;28;19921;-66
2023/03/03 03:49:43;;;;;;;;;;;;;;;-142.75;100.00;79130.13;4949573;28;19922;-67
2023/03/03 03:52:09;;;;;;;;;;;;;;;-142.75;100.00;79153.75;4949538;28;19922;-66
2023/03/03 03:54:34;;;;;;;;;;;;;;;-142.75;100.00;79141.94;4954068;28;19914;-66
2023/03/03 03:56:59;;;;;;;;;;;;;;;-142.75;100.00;79153.75;4953829;28;19925;-66
2023/03/03 03:59:24;;;;;;;;;;;;;;;-142.75;100.00;79155.72;4953531;28;19915;-66
2023/03/03 04:01:50;;;;;;;;;;;;;;;-142.75;100.00;79139.97;4953673;28;20303;-66
2023/03/03 04:04:15;;;;;;;;;;;;;;;-142.75;100.00;79134.06;4953677;28;19937;-66
2023/03/03 04:06:40;;;;;;;;;;;;;;;-142.75;100.00;79149.81;4953408;28;19925;-66
2023/03/03 04:09:06;;;;;;;;;;;;;;;-142.75;100.00;79161.66;4953613;28;19914;-66
2023/03/03 04:11:31;;;;;;;;;;;;;;;-142.75;100.00;79153.75;4953637;28;19914;-66
2023/03/03 04:13:56;;;;;;;;;;;;;;;-142.75;100.00;79173.47;4953507;28;19920;-66
2023/03/03 04:16:21;;;;;;;;;;;;;;;-142.75;100.00;79147.84;4953556;28;19914;-66
2023/03/03 04:18:47;;;;;;;;;;;;;;;-142.75;100.00;79169.53;4953341;28;19914;-66
2023/03/03 04:21:13;;;;;;;;;;;;;;;-142.75;100.00;79181.34;4952006;28;20097;-66
2023/03/03 04:23:38;;;;;;;;;;;;;;;-142.75;100.00;79187.25;4953471;28;20594;-66
2023/03/03 04:26:03;;;;;;;;;;;;;;;-142.75;100.00;79195.13;4953552;28;20005;-66
2023/03/03 04:28:29;;;;;;;;;;;;;;;-142.75;100.00;79195.13;4951824;28;19914;-66
2023/03/03 04:30:54;;;;;;;;;;;;;;;-142.75;100.00;79171.50;4953171;28;19955;-66
2023/03/03 04:33:19;;;;;;;;;;;;;;;-142.75;100.00;79177.41;4953327;28;19914;-66
2023/03/03 04:35:44;;;;;;;;;;;;;;;-142.75;100.00;79167.56;4953370;28;19921;-66
2023/03/03 04:38:09;;;;;;;;;;;;;;;-142.75;100.00;79175.44;4953138;28;20302;-67
2023/03/03 04:40:35;;;;;;;;;;;;;;;-142.75;100.00;79161.66;4953074;28;19921;-66
2023/03/03 04:43:00;;;;;;;;;;;;;;;-142.75;100.00;79169.53;4952045;28;19921;-67
2023/03/03 04:45:25;;;;;;;;;;;;;;;-142.75;100.00;79169.53;4954899;28;19914;-66
2023/03/03 04:47:50;;;;;;;;;;;;;;;-142.75;100.00;79189.22;4955044;28;19960;-66
2023/03/03 04:50:15;;;;;;;;;;;;;;;-142.75;100.00;79181.34;4972118;28;19953;-66
2023/03/03 04:52:41;;;;;;;;;;;;;;;-142.75;100.00;79181.34;4972464;28;20009;-66
2023/03/03 04:55:06;;;;;;;;;;;;;;;-142.75;100.00;79173.47;4955131;28;20387;-66
2023/03/03 04:57:31;;;;;;;;;;;;;;;-142.75;100.00;79173.47;4972075;28;20387;-66
2023/03/03 04:59:57;;;;;;;;;;;;;;;-142.75;100.00;79183.31;4965345;28;20008;-66
2023/03/03 05:02:22;;;;;;;;;;;;;;;-142.75;100.00;79181.34;4948916;28;20655;-66
2023/03/03 05:04:47;;;;;;;;;;;;;;;-142.75;100.00;79163.63;4951323;28;19921;-66
2023/03/03 05:07:12;;;;;;;;;;;;;;;-142.75;100.00;79167.56;4952646;28;19952;-67
2023/03/03 05:09:38;;;;;;;;;;;;;;;-142.75;100.00;79159.69;4951696;28;20555;-66
2023/03/03 05:12:03;;;;;;;;;;;;;;;-142.75;100.00;79157.72;4954633;28;19914;-66
2023/03/03 05:14:30;;;;;;;;;;;;;;;-142.75;100.00;79145.88;4956533;28;20431;-66
2023/03/03 05:16:55;;;;;;;;;;;;;;;-142.75;100.00;79149.81;4955721;28;19964;-66
2023/03/03 05:19:20;;;;;;;;;;;;;;;-142.75;100.00;79130.13;4956126;28;20549;-66
2023/03/03 05:21:45;;;;;;;;;;;;;;;-142.75;100.00;79130.13;4956121;28;20292;-66
2023/03/03 05:24:11;;;;;;;;;;;;;;;-142.75;100.00;79110.44;4956437;28;19961;-66
2023/03/03 05:26:37;;;;;;;;;;;;;;;-142.75;100.00;79098.63;4956502;28;20399;-66
2023/03/03 05:29:02;;;;;;;;;;;;;;;-142.75;100.00;79106.50;4964415;28;19921;-66
2023/03/03 05:31:28;;;;;;;;;;;;;;;-142.75;100.00;79098.63;4956146;28;20303;-66
2023/03/03 05:33:53;;;;;;;;;;;;;;;-142.75;100.00;79098.63;4955419;28;19933;-66
2023/03/03 05:36:18;;;;;;;;;;;;;;;-142.75;100.00;79094.69;4954990;28;20384;-66
2023/03/03 05:38:43;;;;;;;;;;;;;;;-142.75;100.00;79098.63;4953219;28;20005;-66
2023/03/03 05:41:09;;;;;;;;;;;;;;;-142.75;100.00;79086.78;4955188;28;19914;-66
2023/03/03 05:43:34;;;;;;;;;;;;;;;-142.75;100.00;79078.91;4956318;28;19914;-66
2023/03/03 05:45:59;;;;;;;;;;;;;;;-142.75;100.00;79073.00;4956291;28;19960;-66
2023/03/03 05:48:25;;;;;;;;;;;;;;;-142.75;100.00;79067.09;4956411;28;19965;-67
2023/03/03 05:50:50;;;;;;;;;;;;;;;-142.75;100.00;79063.16;4955991;28;19930;-66
2023/03/03 05:53:15;;;;;;;;;;;;;;;-142.75;100.00;79071.03;4956164;28;19942;-66
2023/03/03 05:55:40;;;;;;;;;;;;;;;-142.75;100.00;79063.16;4973320;28;19984;-66
2023/03/03 05:58:05;;;;;;;;;;;;;;;-142.75;100.00;79061.19;4975127;28;19918;-67
2023/03/03 06:00:31;;;;;;;;;;;;;;;-142.75;100.00;79055.28;4975295;28;19961;-66
2023/03/03 06:02:56;;;;;;;;;;;;;;;-142.75;100.00;79055.28;4975290;28;19925;-66
2023/03/03 06:05:21;;;;;;;;;;;;;;;-142.75;100.00;79047.41;4975411;28;19920;-67
2023/03/03 06:07:46;;;;;;;;;;;;;;;-142.75;100.00;79067.09;4975342;28;19921;-66
2023/03/03 06:10:12;;;;;;;;;;;;;;;-142.75;100.00;79059.22;4967936;28;19914;-66
2023/03/03 06:12:37;;;;;;;;;;;;;;;-142.75;100.00;79063.16;4956006;28;19921;-66
2023/03/03 06:15:04;;;;;;;;;;;;;;;-142.75;100.00;79071.03;4955935;28;19919;-66
2023/03/03 06:17:29;;;;;;;;;;;;;;;-142.75;100.00;79065.13;4954333;28;20348;-66
2023/03/03 06:19:54;;;;;;;;;;;;;;;-142.75;100.00;79061.19;4955716;28;19960;-66
2023/03/03 06:22:19;;;;;;;;;;;;;;;-142.75;100.00;79055.28;4955498;28;20022;-66
2023/03/03 06:24:44;;;;;;;;;;;;;;;-142.75;100.00;79063.16;4955851;28;19918;-66
2023/03/03 06:27:10;;;;;;;;;;;;;;;-142.75;100.00;79067.09;4955605;28;19921;-66
2023/03/03 06:29:35;;;;;;;;;;;;;;;-142.75;100.00;79071.03;4955717;28;19921;-66
2023/03/03 06:32:00;;;;;;;;;;;;;;;-142.75;100.00;79053.31;4958447;28;20358;-66
2023/03/03 06:34:25;;;;;;;;;;;;;;;-142.75;100.00;79074.97;4975014;28;20358;-66
2023/03/03 06:36:51;;;;;;;;;;;;;;;-142.75;100.00;79069.06;4974738;28;19926;-66
2023/03/03 06:39:16;;;;;;;;;;;;;;;-142.75;100.00;79086.78;4974593;28;20346;-66
2023/03/03 06:41:41;;;;;;;;;;;;;;;-142.75;100.00;79098.63;4974657;28;20004;-66
2023/03/03 06:44:07;;;;;;;;;;;;;;;-142.75;100.00;79094.69;4974761;28;20009;-66
2023/03/03 06:46:32;;;;;;;;;;;;;;;-142.75;100.00;79096.66;4967137;28;20394;-66
2023/03/03 06:48:57;;;;;;;;;;;;;;;-142.75;100.00;79102.56;4955232;28;19915;-66
2023/03/03 06:51:29;;;;;;;;;;;;;;;-142.75;100.00;79080.88;4955148;28;20000;-66
2023/03/03 06:53:55;;;;;;;;;;;;;;;-142.75;100.00;79088.75;4955300;28;20556;-66
2023/03/03 06:56:22;;;;;;;;;;;;;;;-142.75;100.00;79086.78;4955175;28;19914;-66
2023/03/03 06:58:48;;;;;;;;;;;;;;;-142.75;100.00;79071.03;4954998;28;19973;-66
2023/03/03 07:01:15;;;;;;;;;;;;;;;-142.75;100.00;79074.97;4955030;28;19918;-66
2023/03/03 07:03:40;;;;;;;;;;;;;;;-142.75;100.00;79069.06;4955167;28;19965;-66
2023/03/03 07:06:13;;;;;;;;;;;;;;;-142.75;100.00;79063.16;4955094;28;20360;-66
2023/03/03 07:08:39;;;;;;;;;;;;;;;-142.75;100.00;79043.47;4955242;28;19918;-66
2023/03/03 07:11:08;;;;;;;;;;;;;;;-142.75;100.00;79059.22;4955020;28;19961;-67
2023/03/03 07:13:33;;;;;;;;;;;;;;;-142.75;100.00;79045.44;4957077;28;19925;-66
2023/03/03 07:16:01;;;;;;;;;;;;;;;-142.75;100.00;79051.34;4974229;28;19914;-66
2023/03/03 07:18:28;;;;;;;;;;;;;;;-142.75;100.00;79067.09;4973954;28;19918;-67
2023/03/03 07:20:54;;;;;;;;;;;;;;;-142.75;100.00;79051.34;4973205;28;19917;-66
2023/03/03 07:23:24;;;;;;;;;;;;;;;-142.75;100.00;79051.34;4956411;28;20461;-67
2023/03/03 07:25:51;;;;;;;;;;;;;;;-142.75;100.00;79065.13;4973860;28;19921;-67
2023/03/03 07:28:23;;;;;;;;;;;;;;;-142.75;100.00;79057.25;4956249;28;19956;-67
2023/03/03 07:30:49;;;;;;;;;;;;;;;-142.75;100.00;79051.34;4949135;28;20304;-66
2023/03/03 07:33:23;;;;;;;;;;;;;;;-142.75;100.00;79071.03;4953701;28;19914;-67
2023/03/03 07:35:48;;;;;;;;;;;;;;;-142.75;100.00;79067.09;4954370;28;20269;-67
2023/03/03 07:38:16;;;;;;;;;;;;;;;-142.75;100.00;79059.22;4954194;28;19919;-67
2023/03/03 07:40:46;;;;;;;;;;;;;;;-142.75;100.00;79055.28;4953952;28;19973;-66
2023/03/03 07:43:29;;;;;;;;;;;;;;;-142.75;100.00;79031.66;4954275;28;19961;-66
2023/03/03 07:46:02;;;;;;;;;;;;;;;-142.75;100.00;79019.81;4954374;28;19915;-67
2023/03/03 07:48:34;;;;;;;;;;;;;;;-142.75;100.00;79039.53;4954141;28;19922;-67
2023/03/03 07:51:02;;;;;;;;;;;;;;;-142.75;100.00;79035.59;4953971;28;20440;-67
2023/03/03 07:53:33;;;;;;;;;;;;;;;-142.75;100.00;79045.44;4968881;28;19914;-67
2023/03/03 07:55:59;;;;;;;;;;;;;;;-142.75;100.00;79047.41;4973223;28;19914;-67
2023/03/03 07:58:34;;;;;;;;;;;;;;;-142.75;100.00;79055.28;4973118;28;20457;-66
2023/03/03 08:01:18;;;;;;;;;;;;;;;-142.75;100.00;79043.47;4973126;28;19914;-66
2023/03/03 08:03:45;;;;;;;;;;;;;;;-142.75;100.00;79067.09;4955127;28;19918;-67
2023/03/03 08:06:31;;;;;;;;;;;;;;;-142.75;100.00;79074.97;4953747;28;20376;-67
2023/03/03 08:09:01;;;;;;;;;;;;;;;-142.75;100.00;79074.97;4953718;28;19921;-66
2023/03/03 08:11:26;;;;;;;;;;;;;;;-142.75;100.00;79059.22;4953889;28;19914;-66
2023/03/03 08:13:52;;;;;;;;;;;;;;;-142.75;100.00;79073.00;4953827;28;20008;-66
2023/03/03 08:16:23;;;;;;;;;;;;;;;-142.75;100.00;79053.31;4953088;28;20403;-65
2023/03/03 08:18:50;;;;;;;;;;;;;;;-142.75;100.00;79073.00;4954997;28;20049;-64
2023/03/03 08:21:17;;;;;;;;;;;;;;;-142.75;100.00;79057.25;4955607;28;19921;-65
2023/03/03 08:23:43;;;;;;;;;;;;;;;-142.75;100.00;79059.22;4956570;28;20290;-65
2023/03/03 08:26:11;;;;;;;;;;;;;;;-142.75;100.00;79063.16;4957749;28;20001;-65
2023/03/03 08:28:36;;;;;;;;;;;;;;;-142.75;100.00;79053.31;4957340;28;19914;-67
2023/03/03 08:31:01;;;;;;;;;;;;;;;-142.75;100.00;79047.41;4954052;28;19914;-66
2023/03/03 08:33:27;;;;;;;;;;;;;;;-142.75;100.00;79067.09;4950600;28;20013;-65
2023/03/03 08:35:52;;;;;;;;;;;;;;;-142.75;100.00;79045.44;4953427;28;19922;-66
2023/03/03 08:38:18;;;;;;;;;;;;;;;-142.75;100.00;79047.41;4954601;28;19977;-66
2023/03/03 08:40:44;;;;;;;;;;;;;;;-142.75;100.00;79019.81;4954889;28;19960;-66
2023/03/03 08:43:09;;;;;;;;;;;;;;;-142.75;100.00;79031.66;4952976;28;19965;-68
2023/03/03 08:45:35;;;;;;;;;;;;;;;-142.75;100.00;79031.66;4952753;28;20016;-66
2023/03/03 08:48:00;;;;;;;;;;;;;;;-142.75;100.00;79015.88;4952931;28;19918;-66
2023/03/03 08:50:26;;;;;;;;;;;;;;;-142.75;100.00;79015.88;4953931;28;19969;-66
2023/03/03 08:52:51;;;;;;;;;;;;;;;-142.75;100.00;79027.69;4941200;28;19922;-67
2023/03/03 08:55:17;;;;;;;;;;;;;;;-142.75;100.00;79037.56;4955637;28;19914;-67
2023/03/03 08:57:42;;;;;;;;;;;;;;;-142.75;100.00;79027.69;4953255;28;19958;-66
2023/03/03 09:00:10;;;;;;;;;;;;;;;-142.75;100.00;79055.28;4949609;28;19914;-66
2023/03/03 09:02:35;;;;;;;;;;;;;;;-142.75;100.00;79008.00;4954466;28;20422;-66
2023/03/03 09:05:00;;;;;;;;;;;;;;;-142.75;100.00;79009.97;4953538;28;19914;-65
2023/03/03 09:07:26;;;;;;;;;;;;;;;-142.75;100.00;78982.41;4951121;28;19993;-66
2023/03/03 09:09:51;;;;;;;;;;;;;;;-142.75;100.00;78976.50;4953352;28;19914;-65
2023/03/03 09:12:18;;;;;;;;;;;;;;;-142.75;100.00;78964.69;4955621;28;19915;-66
2023/03/03 09:14:43;;;;;;;;;;;;;;;-142.75;100.00;78937.09;4962571;28;20368;-66
2023/03/03 09:17:25;;;;;;;;;;;;;;;-142.75;100.00;78921.34;4977607;23;19925;-65
2023/03/03 09:19:50;;;;;;;;;;;;;;;-142.75;100.00;78921.34;4931116;29;19923;-66
2023/03/03 09:22:20;;;;;;;;;;;;;;;-142.75;100.00;78937.09;4939645;29;19961;-66
2023/03/03 09:24:46;;;;;;;;;;;;;;;-142.75;100.00;78927.25;4943523;29;19918;-65
2023/03/03 09:27:17;;;;;;;;;;;;;;;-142.75;100.00;78976.50;4937942;28;19914;-66
2023/03/03 09:29:42;;;;;;;;;;;;;;;-142.75;100.00;78941.03;4940985;29;20291;-64
2023/03/03 09:32:20;;;;;;;;;;;;;;;-142.75;100.00;78933.16;4937231;29;19923;-66
2023/03/03 09:34:45;;;;;;;;;;;;;;;-142.75;100.00;78931.19;4933421;29;19914;-66
2023/03/03 09:37:16;;;;;;;;;;;;;;;-142.75;100.00;78909.53;4933051;29;19918;-67
2023/03/03 09:39:41;;;;;;;;;;;;;;;-142.75;100.00;78879.97;4936551;29;19946;-66
2023/03/03 09:42:28;;;;;;;;;;;;;;;-142.75;100.00;78870.13;4931458;29;19914;-65
2023/03/03 09:45:26;;;;;;;;;;;;;;;-142.75;100.00;78852.41;4938533;29;19922;-65
2023/03/03 09:47:57;;;;;;;;;;;;;;;-142.75;100.00;78878.00;4904923;29;19914;-65
2023/03/03 09:50:25;;;;;;;;;;;;;;;-142.75;100.00;78876.03;4937062;29;20307;-67
2023/03/03 09:53:09;;;;;;;;;;;;;;;-142.75;100.00;78868.16;4932897;29;19921;-67
2023/03/03 09:55:44;;;;;;;;;;;;;;;-142.75;100.00;78769.69;4945346;29;19914;-66
2023/03/03 09:58:12;;;;;;;;;;;;;;;-142.75;100.00;78685.00;4935615;29;20426;-67
2023/03/03 10:00:37;;;;;;;;;;;;;;;-142.75;100.00;78612.13;4936565;29;19918;-66
2023/03/03 10:03:21;;;;;;;;;;;;;;;-142.75;100.00;78558.94;4931116;29;20368;-66
2023/03/03 10:05:59;;;;;;;;;;;;;;;-142.75;100.00;78553.03;4947316;29;20340;-66
2023/03/03 10:08:24;;;;;;;;;;;;;;;-142.75;100.00;78529.41;4943357;28;19914;-65
2023/03/03 10:11:02;;;;;;;;;;;;;;;-142.75;100.00;78527.44;4932760;29;20273;-64
2023/03/03 10:13:42;;;;;;;;;;;;;;;-142.75;100.00;78574.69;4935592;29;19931;-66
2023/03/03 10:16:26;;;;;;;;;;;;;;;-142.75;100.00;78580.59;4935766;29;19914;-67
2023/03/03 10:18:57;;;;;;;;;;;;;;;-142.75;100.00;78604.25;4938441;28;19919;-66
2023/03/03 10:21:36;;;;;;;;;;;;;;;-142.75;100.00;78590.47;4931844;29;19914;-67
2023/03/03 10:24:01;;;;;;;;;;;;;;;-142.75;100.00;78462.44;4929569;29;20399;-66
2023/03/03 10:26:50;;;;;;;;;;;;;;;-142.75;100.00;78428.97;4939986;29;19915;-66
2023/03/03 10:29:51;;;;;;;;;;;;;;;-142.75;100.00;78350.19;4940156;28;20006;-67
2023/03/03 10:32:25;;;;;;;;;;;;;;;-142.75;100.00;78369.88;4894857;29;20350;-67
2023/03/03 10:34:50;;;;;;;;;;;;;;;-142.75;100.00;78428.97;4924504;29;19915;-67
2023/03/03 10:37:34;;;;;;;;;;;;;;;-142.75;100.00;78411.25;4936083;29;19966;-68
2023/03/03 10:40:15;;;;;;;;;;;;;;;-142.75;100.00;78367.91;4950413;29;19915;-66
2023/03/03 10:42:40;;;;;;;;;;;;;;;-142.75;100.00;78354.13;4938559;29;20392;-66
2023/03/03 10:45:24;;;;;;;;;;;;;;;-142.75;100.00;78326.56;4945551;29;19919;-67
2023/03/03 10:48:08;;;;;;;;;;;;;;;-142.75;100.00;78291.09;4952451;28;19914;-67
2023/03/03 10:51:02;;;;;;;;;;;;;;;-142.75;100.00;78277.31;4948109;29;19915;-67
2023/03/03 10:53:33;;;;;;;;;;;;;;;-142.75;100.00;78249.75;4942917;29;20021;-68
2023/03/03 10:56:05;;;;;;;;;;;;;;;-142.75;100.00;78237.94;4935545;29;19918;-69
2023/03/03 10:58:36;;;;;;;;;;;;;;;-142.75;100.00;78239.91;4940337;28;19919;-68
2023/03/03 11:01:12;;;;;;;;;;;;;;;-142.75;100.00;78287.16;4934953;29;19914;-67
2023/03/03 11:03:55;;;;;;;;;;;;;;;-142.75;100.00;78338.38;4934345;29;19922;-69
2023/03/03 11:06:25;;;;;;;;;;;;;;;-142.75;100.00;78409.28;4934985;29;19920;-70
2023/03/03 11:09:02;;;;;;;;;;;;;;;-142.75;100.00;78413.22;4933337;29;19982;-69
2023/03/03 11:11:40;;;;;;;;;;;;;;;-142.75;100.00;78442.75;4934129;29;19942;-68
2023/03/03 11:14:24;;;;;;;;;;;;;;;-142.75;100.00;78334.44;4934434;29;19915;-68
2023/03/03 11:16:57;;;;;;;;;;;;;;;-142.75;100.00;78295.06;4936211;29;19919;-68
2023/03/03 11:19:39;;;;;;;;;;;;;;;-142.75;100.00;78228.09;4934809;29;19929;-68
2023/03/03 11:22:13;;;;;;;;;;;;;;;-142.75;100.00;78251.72;4934544;29;19957;-69
2023/03/03 11:24:50;;;;;;;;;;;;;;;-142.75;100.00;78184.78;4933759;29;19925;-69
2023/03/03 11:27:22;;;;;;;;;;;;;;;-142.75;100.00;78044.94;4943903;29;19921;-68
2023/03/03 11:29:47;;;;;;;;;;;;;;;-142.75;100.00;77987.84;4933080;29;19980;-69
2023/03/03 11:32:18;;;;;;;;;;;;;;;-142.75;93.69;77983.91;4937883;29;20388;-69
2023/03/03 11:34:55;;;;;;;;;;;;;;;-142.75;98.41;78074.50;4942600;29;19921;-69
2023/03/03 11:37:39;;;;;;;;;;;;;;;-142.75;97.42;78125.69;4936411;29;20635;-67
2023/03/03 11:40:16;;;;;;;;;;;;;;;-142.75;100.00;78299.00;4945260;29;19922;-67
2023/03/03 11:42:48;;;;;;;;;;;;;;;-142.75;100.00;78350.19;4934678;29;19950;-67
2023/03/03 11:45:17;;;;;;;;;;;;;;;-142.75;100.00;78354.13;4934483;29;19925;-67
2023/03/03 11:47:52;;;;;;;;;;;;;;;-142.75;100.00;78318.69;4934769;29;20393;-66
2023/03/03 11:50:23;;;;;;;;;;;;;;;-142.75;100.00;78184.78;4946676;29;19922;-68
2023/03/03 11:53:07;;;;;;;;;;;;;;;-142.75;95.03;78102.06;4938220;29;19929;-70
2023/03/03 11:55:36;;;;;;;;;;;;;;;-142.75;87.67;78035.09;4936250;29;20414;-69
2023/03/03 11:58:10;;;;;;;;;;;;;;;-142.75;88.76;78137.50;4935569;29;19933;-68
2023/03/03 12:00:48;;;;;;;;;;;;;;;-142.75;89.60;78056.78;4937271;29;19970;-68
2023/03/03 12:03:20;;;;;;;;;;;;;;;-142.75;86.76;78070.56;4937783;29;19950;-69
2023/03/03 12:05:49;;;;;;;;;;;;;;;-142.75;82.53;78037.06;4926473;29;19915;-69
2023/03/03 12:08:32;;;;;;;;;;;;;;;-142.75;81.88;77964.22;4934569;29;19970;-69
2023/03/03 12:10:57;;;;;;;;;;;;;;;-142.75;81.75;77944.53;4943186;29;19915;-69
2023/03/03 12:13:38;;;;;;;;;;;;;;;-142.75;78.19;77968.16;4933074;29;19921;-70
2023/03/03 12:16:10;;;;;;;;;;;;;;;-142.75;80.20;77999.66;4947290;29;19914;-69
2023/03/03 12:18:41;;;;;;;;;;;;;;;-142.75;81.50;78003.59;4933917;29;20018;-69
2023/03/03 12:21:19;;;;;;;;;;;;;;;-142.75;81.08;77940.59;4930460;29;19922;-68
2023/03/03 12:24:14;;;;;;;;;;;;;;;-142.75;80.77;78066.63;4935187;29;19914;-69
2023/03/03 12:26:42;;;;;;;;;;;;;;;-142.75;82.51;78050.84;4913230;29;20304;-68